createdAt,value
2018-08-31T00:01:24.866Z,9.53
2018-08-31T00:06:47.015Z,11.10
2018-08-31T00:11:57.887Z,9.20
2018-08-31T00:16:52.944Z,11.80
2018-08-31T00:21:47.748Z,9.67
2018-08-31T00:26:59.201Z,8.30
2018-08-31T00:37:16.748Z,10.20
2018-08-31T00:45:35.445Z,11.50
2018-08-31T00:50:30.759Z,10.73
2018-08-31T00:55:25.616Z,10.93
2018-08-31T01:00:21.049Z,9.97
2018-08-31T01:05:16.282Z,13.10
2018-08-31T01:10:11.152Z,12.07
2018-08-31T01:15:06.132Z,11.53
2018-08-31T01:20:00.956Z,10.70
2018-08-31T01:24:55.802Z,11.13
2018-08-31T01:29:50.669Z,10.33
2018-08-31T01:34:45.574Z,12.97
2018-08-31T01:39:40.399Z,11.27
2018-08-31T01:44:35.227Z,13.00
2018-08-31T01:49:30.098Z,12.57
2018-08-31T01:54:24.970Z,11.80
2018-08-31T01:59:19.803Z,13.13
2018-08-31T02:04:14.738Z,12.13
2018-08-31T02:09:14.726Z,11.60
2018-08-31T02:14:09.534Z,12.17
2018-08-31T02:19:04.468Z,11.93
2018-08-31T02:23:59.565Z,11.20
2018-08-31T02:28:54.426Z,11.93
2018-08-31T02:33:49.244Z,11.93
2018-08-31T02:38:44.075Z,13.23
2018-08-31T02:43:38.958Z,11.30
2018-08-31T02:48:34.488Z,11.43
2018-08-31T02:53:29.304Z,12.20
2018-08-31T02:58:24.119Z,11.23
2018-08-31T03:03:19.231Z,11.83
2018-08-31T03:08:14.049Z,12.17
2018-08-31T03:13:08.854Z,12.07
2018-08-31T03:18:03.692Z,15.27
2018-08-31T03:22:58.494Z,12.73
2018-08-31T03:27:53.344Z,12.40
2018-08-31T03:32:48.109Z,14.43
2018-08-31T03:37:42.926Z,14.00
2018-08-31T03:42:37.754Z,13.60
2018-08-31T03:47:32.575Z,10.67
2018-08-31T03:52:27.365Z,14.27
2018-08-31T03:57:22.241Z,13.03
2018-08-31T04:02:17.032Z,11.27
2018-08-31T04:07:12.018Z,12.67
2018-08-31T04:12:06.856Z,13.97
2018-08-31T04:17:01.687Z,16.10
2018-08-31T04:21:56.556Z,16.30
2018-08-31T04:26:51.402Z,16.80
2018-08-31T04:31:46.279Z,16.60
2018-08-31T04:36:42.001Z,17.20
2018-08-31T04:41:36.833Z,17.27
2018-08-31T04:46:31.778Z,20.37
2018-08-31T04:51:26.556Z,16.77
2018-08-31T04:56:21.422Z,20.10
2018-08-31T05:01:16.231Z,21.43
2018-08-31T05:06:11.083Z,20.10
2018-08-31T05:11:06.009Z,21.40
2018-08-31T05:16:00.969Z,20.57
2018-08-31T05:20:55.792Z,20.87
2018-08-31T05:25:50.621Z,25.00
2018-08-31T05:30:45.433Z,24.37
2018-08-31T05:35:40.274Z,26.03
2018-08-31T05:40:35.068Z,27.27
2018-08-31T05:45:29.871Z,25.37
2018-08-31T05:50:24.781Z,29.93
2018-08-31T05:55:19.625Z,27.97
2018-08-31T06:00:14.528Z,30.70
2018-08-31T06:05:10.362Z,24.73
2018-08-31T06:10:05.393Z,27.93
2018-08-31T06:15:00.466Z,24.57
2018-08-31T06:19:55.346Z,27.13
2018-08-31T06:24:50.261Z,29.20
2018-08-31T06:29:45.067Z,31.27
2018-08-31T06:34:39.873Z,30.60
2018-08-31T06:39:34.726Z,28.73
2018-08-31T06:44:29.547Z,24.67
2018-08-31T06:49:24.434Z,21.73
2018-08-31T06:54:19.421Z,24.73
2018-08-31T06:59:14.280Z,23.53
2018-08-31T07:04:09.105Z,21.70
2018-08-31T07:09:04.826Z,25.13
2018-08-31T07:13:59.692Z,22.10
2018-08-31T07:18:54.598Z,22.97
2018-08-31T07:23:49.457Z,23.53
2018-08-31T07:28:44.364Z,27.40
2018-08-31T07:33:39.261Z,27.73
2018-08-31T07:38:34.274Z,23.23
2018-08-31T07:43:29.346Z,22.77
2018-08-31T07:48:24.231Z,23.37
2018-08-31T07:53:19.156Z,23.33
2018-08-31T07:58:14.142Z,22.00
2018-08-31T08:03:09.143Z,28.53
2018-08-31T08:08:04.080Z,24.20
2018-08-31T08:12:59.196Z,23.10
2018-08-31T08:17:54.089Z,25.90
2018-08-31T08:22:49.044Z,26.53
2018-08-31T08:27:44.038Z,25.97
2018-08-31T08:32:38.980Z,22.33
2018-08-31T08:37:33.974Z,23.87
2018-08-31T08:42:29.002Z,23.00
2018-08-31T08:47:23.942Z,19.53
2018-08-31T08:52:18.836Z,21.00
2018-08-31T08:57:15.242Z,20.87
2018-08-31T09:02:10.411Z,18.73
2018-08-31T09:07:05.422Z,18.33
2018-08-31T09:12:00.485Z,17.10
2018-08-31T09:16:55.282Z,19.70
2018-08-31T09:21:50.186Z,17.90
2018-08-31T09:26:45.174Z,18.47
2018-08-31T09:31:40.128Z,18.17
2018-08-31T09:36:35.324Z,16.03
2018-08-31T09:41:30.184Z,20.13
2018-08-31T09:46:25.132Z,19.80
2018-08-31T09:51:20.081Z,16.50
2018-08-31T09:56:14.968Z,14.93
2018-08-31T10:01:15.013Z,17.63
2018-08-31T10:06:09.845Z,18.00
2018-08-31T10:11:04.821Z,18.03
2018-08-31T10:15:59.797Z,19.43
2018-08-31T10:20:54.708Z,17.53
2018-08-31T10:25:49.594Z,16.83
2018-08-31T10:30:44.649Z,14.57
2018-08-31T10:35:39.919Z,18.73
2018-08-31T10:40:34.998Z,20.77
2018-08-31T10:45:29.939Z,23.47
2018-08-31T10:50:24.881Z,21.90
2018-08-31T10:55:19.867Z,17.30
2018-08-31T11:00:14.788Z,16.00
2018-08-31T11:05:09.678Z,17.60
2018-08-31T11:10:04.631Z,18.13
2018-08-31T11:14:59.538Z,16.63
2018-08-31T11:19:54.433Z,17.53
2018-08-31T11:24:49.348Z,17.57
2018-08-31T11:29:44.204Z,18.20
2018-08-31T11:34:39.043Z,16.43
2018-08-31T11:39:33.972Z,18.43
2018-08-31T11:44:28.902Z,15.33
2018-08-31T11:49:23.813Z,19.73
2018-08-31T11:54:18.658Z,19.50
2018-08-31T11:59:13.546Z,21.17
2018-08-31T12:04:08.456Z,17.67
2018-08-31T12:09:03.422Z,19.97
2018-08-31T12:13:58.281Z,18.00
2018-08-31T12:18:53.135Z,20.57
2018-08-31T12:23:48.013Z,18.53
2018-08-31T12:28:42.926Z,16.23
2018-08-31T12:33:37.813Z,20.07
2018-08-31T12:38:32.701Z,14.17
2018-08-31T12:43:27.675Z,17.27
2018-08-31T12:48:22.578Z,16.27
2018-08-31T12:53:17.507Z,16.43
2018-08-31T12:58:12.439Z,16.53
2018-08-31T13:03:07.433Z,16.93
2018-08-31T13:08:02.403Z,16.93
2018-08-31T13:12:57.494Z,16.63
2018-08-31T13:17:52.457Z,14.40
2018-08-31T13:22:47.582Z,14.07
2018-08-31T13:27:42.454Z,14.40
2018-08-31T13:32:37.325Z,13.77
2018-08-31T13:37:32.265Z,12.73
2018-08-31T13:42:27.221Z,12.80
2018-08-31T13:47:22.125Z,10.57
2018-08-31T13:52:17.270Z,12.07
2018-08-31T13:57:12.105Z,13.83
2018-08-31T14:02:08.276Z,14.00
2018-08-31T14:07:03.208Z,13.30
2018-08-31T14:11:58.004Z,13.20
2018-08-31T14:16:52.885Z,10.13
2018-08-31T14:21:47.752Z,10.80
2018-08-31T14:26:42.615Z,13.00
2018-08-31T14:31:37.487Z,10.10
2018-08-31T14:36:32.331Z,10.97
2018-08-31T14:41:27.224Z,9.57
2018-08-31T14:46:22.226Z,9.67
2018-08-31T14:51:17.125Z,9.93
2018-08-31T14:56:11.977Z,7.97
2018-08-31T15:01:07.061Z,6.97
2018-08-31T15:06:02.082Z,7.77
2018-08-31T15:10:56.857Z,7.53
2018-08-31T15:15:51.826Z,7.77
2018-08-31T15:20:46.698Z,8.90
2018-08-31T15:25:41.607Z,9.10
2018-08-31T15:30:36.439Z,10.97
2018-08-31T15:35:31.345Z,13.17
2018-08-31T15:40:26.286Z,10.07
2018-08-31T15:45:21.106Z,13.63
2018-08-31T15:50:15.923Z,11.77
2018-08-31T15:55:10.817Z,13.13
2018-08-31T16:00:06.581Z,10.37
2018-08-31T16:05:01.574Z,15.10
2018-08-31T16:09:56.381Z,11.53
2018-08-31T16:14:51.167Z,13.30
2018-08-31T16:19:46.029Z,11.47
2018-08-31T16:24:40.839Z,12.90
2018-08-31T16:29:35.637Z,12.97
2018-08-31T16:34:30.459Z,12.07
2018-08-31T16:39:25.261Z,11.40
2018-08-31T16:44:20.102Z,10.33
2018-08-31T16:49:14.955Z,11.33
2018-08-31T16:54:10.384Z,12.83
2018-08-31T16:59:05.486Z,13.50
2018-08-31T17:04:00.309Z,12.23
2018-08-31T17:08:55.175Z,12.43
2018-08-31T17:13:49.997Z,12.77
2018-08-31T17:18:44.837Z,12.90
2018-08-31T17:23:39.753Z,14.10
2018-08-31T17:28:39.782Z,15.47
2018-08-31T17:33:39.616Z,15.73
2018-08-31T17:38:34.501Z,14.03
2018-08-31T17:43:29.424Z,13.97
2018-08-31T17:48:24.338Z,15.87
2018-08-31T17:53:19.285Z,17.30
2018-08-31T17:58:14.177Z,17.33
2018-08-31T18:03:09.132Z,19.40
2018-08-31T18:08:04.097Z,18.20
2018-08-31T18:12:59.166Z,17.20
2018-08-31T18:17:54.120Z,19.27
2018-08-31T18:22:49.068Z,20.50
2018-08-31T18:27:44.059Z,20.33
2018-08-31T18:32:40.897Z,17.07
2018-08-31T18:37:34.428Z,17.00
2018-08-31T18:42:29.760Z,18.67
2018-08-31T18:47:24.829Z,22.60
2018-08-31T18:52:19.894Z,16.23
2018-08-31T18:57:14.810Z,6.73
2018-08-31T19:02:09.763Z,5.47
2018-08-31T19:07:04.798Z,2.63
2018-08-31T19:11:59.836Z,4.37
2018-08-31T19:16:54.806Z,3.67
2018-08-31T19:21:49.790Z,4.27
2018-08-31T19:26:44.722Z,8.33
2018-08-31T19:31:39.647Z,19.03
2018-08-31T19:36:34.538Z,15.40
2018-08-31T19:41:29.520Z,16.67
2018-08-31T19:46:24.421Z,17.03
2018-08-31T19:51:19.326Z,16.07
2018-08-31T19:56:14.261Z,19.30
2018-08-31T20:01:09.132Z,16.23
2018-08-31T20:06:04.062Z,18.77
2018-08-31T20:10:58.888Z,17.60
2018-08-31T20:15:53.759Z,18.17
2018-08-31T20:20:48.700Z,18.70
2018-08-31T20:25:43.803Z,18.40
2018-08-31T20:30:38.675Z,15.90
2018-08-31T20:35:33.474Z,15.53
2018-08-31T20:40:28.287Z,15.80
2018-08-31T20:45:23.153Z,17.93
2018-08-31T20:50:17.983Z,18.40
2018-08-31T20:55:12.780Z,15.53
2018-08-31T21:00:08.170Z,17.80
2018-08-31T21:05:03.012Z,17.40
2018-08-31T21:09:57.807Z,15.80
2018-08-31T21:14:52.665Z,18.70
2018-08-31T21:19:47.476Z,18.47
2018-08-31T21:24:42.427Z,19.87
2018-08-31T21:29:37.220Z,19.43
2018-08-31T21:34:32.010Z,17.33
2018-08-31T21:39:26.805Z,19.43
2018-08-31T21:44:21.660Z,19.87
2018-08-31T21:49:16.489Z,17.33
2018-08-31T21:54:11.298Z,16.97
2018-08-31T21:59:06.281Z,18.80
2018-08-31T22:04:01.127Z,17.63
2018-08-31T22:08:56.021Z,19.80
2018-08-31T22:13:50.807Z,17.90
2018-08-31T22:18:45.641Z,21.67
2018-08-31T22:23:40.430Z,19.57
2018-08-31T22:28:35.242Z,18.97
2018-08-31T22:33:30.138Z,19.20
2018-08-31T22:38:24.961Z,21.20
2018-08-31T22:43:20.797Z,22.73
2018-08-31T22:48:15.625Z,20.50
2018-08-31T22:53:10.441Z,21.30
2018-08-31T22:58:05.305Z,21.23
2018-08-31T23:03:00.157Z,20.13
2018-08-31T23:08:00.083Z,20.50
2018-08-31T23:12:54.952Z,19.43
2018-08-31T23:17:51.801Z,20.80
2018-08-31T23:22:46.685Z,20.27
2018-08-31T23:27:41.519Z,18.07
2018-08-31T23:32:36.369Z,20.17
2018-08-31T23:37:31.214Z,19.00
2018-08-31T23:42:26.062Z,19.37
2018-08-31T23:47:20.874Z,20.93
2018-08-31T23:52:15.713Z,20.03
2018-08-31T23:57:10.582Z,20.00
